sensor_id;sensor_type;location;lat;lon;timestamp;pressure;altitude;pressure_sealevel;temperature;humidity
8280;BME280;8335;42.646;23.380;2023-01-16T00:00:58;94250.31;;;0.79;100.00
8280;BME280;8335;42.646;23.380;2023-01-16T00:03:25;94255.34;;;0.77;100.00
8280;BME280;8335;42.646;23.380;2023-01-16T00:05:52;94259.47;;;0.78;100.00
8280;BME280;8335;42.646;23.380;2023-01-16T00:08:18;94251.22;;;0.75;100.00
8280;BME280;8335;42.646;23.380;2023-01-16T00:10:45;94258.69;;;0.76;100.00
8280;BME280;8335;42.646;23.380;2023-01-16T00:13:13;94257.88;;;0.76;100.00
8280;BME280;8335;42.646;23.380;2023-01-16T00:15:44;94239.69;;;0.66;100.00
8280;BME280;8335;42.646;23.380;2023-01-16T00:18:12;94245.44;;;0.70;100.00
8280;BME280;8335;42.646;23.380;2023-01-16T00:20:39;94255.44;;;0.71;100.00
8280;BME280;8335;42.646;23.380;2023-01-16T00:23:06;94231.63;;;0.50;100.00
8280;BME280;8335;42.646;23.380;2023-01-16T00:25:32;94253.91;;;0.64;100.00
8280;BME280;8335;42.646;23.380;2023-01-16T00:28:00;94254.75;;;0.65;100.00
8280;BME280;8335;42.646;23.380;2023-01-16T00:30:27;94244.72;;;0.63;100.00
8280;BME280;8335;42.646;23.380;2023-01-16T00:32:54;94235.56;;;0.62;100.00
8280;BME280;8335;42.646;23.380;2023-01-16T00:35:22;94241.41;;;0.63;100.00
8280;BME280;8335;42.646;23.380;2023-01-16T00:37:51;94229.72;;;0.62;100.00
8280;BME280;8335;42.646;23.380;2023-01-16T00:40:18;94228.06;;;0.62;100.00
8280;BME280;8335;42.646;23.380;2023-01-16T00:42:45;94198.34;;;0.42;100.00
8280;BME280;8335;42.646;23.380;2023-01-16T00:45:12;94222.16;;;0.66;100.00
8280;BME280;8335;42.646;23.380;2023-01-16T00:47:39;94218.81;;;0.64;100.00
8280;BME280;8335;42.646;23.380;2023-01-16T00:50:06;94209.78;;;0.55;100.00
8280;BME280;8335;42.646;23.380;2023-01-16T00:52:35;94218.81;;;0.66;100.00
8280;BME280;8335;42.646;23.380;2023-01-16T00:55:01;94220.44;;;0.68;100.00
8280;BME280;8335;42.646;23.380;2023-01-16T00:57:28;94218.72;;;0.72;100.00
8280;BME280;8335;42.646;23.380;2023-01-16T00:59:55;94213.59;;;0.76;100.00
8280;BME280;8335;42.646;23.380;2023-01-16T01:02:22;94218.56;;;0.79;100.00
8280;BME280;8335;42.646;23.380;2023-01-16T01:04:49;94211.03;;;0.79;100.00
8280;BME280;8335;42.646;23.380;2023-01-16T01:07:15;94216.06;;;0.79;100.00
8280;BME280;8335;42.646;23.380;2023-01-16T01:09:43;94216.84;;;0.81;100.00
8280;BME280;8335;42.646;23.380;2023-01-16T01:12:10;94212.72;;;0.79;100.00
8280;BME280;8335;42.646;23.380;2023-01-16T01:14:37;94211.88;;;0.78;100.00
8280;BME280;8335;42.646;23.380;2023-01-16T01:17:04;94213.56;;;0.79;100.00
8280;BME280;8335;42.646;23.380;2023-01-16T01:19:31;94213.56;;;0.78;100.00
8280;BME280;8335;42.646;23.380;2023-01-16T01:21:57;94206.97;;;0.74;100.00
8280;BME280;8335;42.646;23.380;2023-01-16T01:24:24;94216.06;;;0.79;100.00
8280;BME280;8335;42.646;23.380;2023-01-16T01:26:52;94200.38;;;0.68;100.00
8280;BME280;8335;42.646;23.380;2023-01-16T01:29:19;94216.13;;;0.75;100.00
8280;BME280;8335;42.646;23.380;2023-01-16T01:31:46;94209.41;;;0.77;100.00
8280;BME280;8335;42.646;23.380;2023-01-16T01:34:12;94206.19;;;0.72;100.00
8280;BME280;8335;42.646;23.380;2023-01-16T01:36:39;94202.00;;;0.72;100.00
8280;BME280;8335;42.646;23.380;2023-01-16T01:39:06;94187.09;;;0.63;100.00
8280;BME280;8335;42.646;23.380;2023-01-16T01:41:33;94069.09;;;-0.10;100.00
8280;BME280;8335;42.646;23.380;2023-01-16T01:44:01;94194.41;;;0.75;100.00
8280;BME280;8335;42.646;23.380;2023-01-16T01:46:30;94185.16;;;0.77;100.00
8280;BME280;8335;42.646;23.380;2023-01-16T01:49:06;94175.88;;;0.82;100.00
8280;BME280;8335;42.646;23.380;2023-01-16T01:51:37;94173.34;;;0.84;100.00
8280;BME280;8335;42.646;23.380;2023-01-16T01:54:07;94174.16;;;0.86;100.00
8280;BME280;8335;42.646;23.380;2023-01-16T01:56:38;94169.94;;;0.88;100.00
8280;BME280;8335;42.646;23.380;2023-01-16T01:59:12;94165.03;;;0.82;100.00
8280;BME280;8335;42.646;23.380;2023-01-16T02:01:40;94182.47;;;0.88;100.00
8280;BME280;8335;42.646;23.380;2023-01-16T02:04:10;94168.31;;;0.86;100.00
8280;BME280;8335;42.646;23.380;2023-01-16T02:06:43;94169.97;;;0.87;100.00
8280;BME280;8335;42.646;23.380;2023-01-16T02:09:11;94162.47;;;0.87;100.00
8280;BME280;8335;42.646;23.380;2023-01-16T02:11:44;94156.59;;;0.88;100.00
8280;BME280;8335;42.646;23.380;2023-01-16T02:14:15;94162.41;;;0.88;100.00
8280;BME280;8335;42.646;23.380;2023-01-16T02:16:42;94160.69;;;0.90;100.00
8280;BME280;8335;42.646;23.380;2023-01-16T02:19:35;94155.66;;;0.93;100.00
8280;BME280;8335;42.646;23.380;2023-01-16T02:22:38;94148.94;;;0.94;100.00
8280;BME280;8335;42.646;23.380;2023-01-16T02:28:40;94144.81;;;0.91;100.00
8280;BME280;8335;42.646;23.380;2023-01-16T02:31:32;94150.56;;;0.96;100.00
8280;BME280;8335;42.646;23.380;2023-01-16T02:34:15;94140.63;;;0.92;100.00
8280;BME280;8335;42.646;23.380;2023-01-16T02:36:53;94144.06;;;0.88;100.00
8280;BME280;8335;42.646;23.380;2023-01-16T02:39:34;94138.25;;;0.84;100.00
8280;BME280;8335;42.646;23.380;2023-01-16T02:42:10;94139.88;;;0.88;100.00
8280;BME280;8335;42.646;23.380;2023-01-16T02:44:45;94140.69;;;0.89;100.00
8280;BME280;8335;42.646;23.380;2023-01-16T02:47:20;94138.22;;;0.86;100.00
8280;BME280;8335;42.646;23.380;2023-01-16T02:49:55;94127.53;;;0.79;100.00
8280;BME280;8335;42.646;23.380;2023-01-16T02:52:32;94136.66;;;0.81;100.00
8280;BME280;8335;42.646;23.380;2023-01-16T02:55:03;94138.38;;;0.79;100.00
8280;BME280;8335;42.646;23.380;2023-01-16T02:57:35;94130.94;;;0.75;100.00
8280;BME280;8335;42.646;23.380;2023-01-16T03:00:05;94129.34;;;0.72;100.00
8280;BME280;8335;42.646;23.380;2023-01-16T03:02:34;94120.22;;;0.68;100.00
8280;BME280;8335;42.646;23.380;2023-01-16T03:05:01;94096.25;;;0.55;100.00
8280;BME280;8335;42.646;23.380;2023-01-16T03:10:46;94117.03;;;0.60;100.00
8280;BME280;8335;42.646;23.380;2023-01-16T03:13:27;94108.75;;;0.58;100.00
8280;BME280;8335;42.646;23.380;2023-01-16T03:16:03;94117.91;;;0.59;100.00
8280;BME280;8335;42.646;23.380;2023-01-16T03:18:40;94108.78;;;0.55;100.00
8280;BME280;8335;42.646;23.380;2023-01-16T03:21:11;94102.03;;;0.59;100.00
8280;BME280;8335;42.646;23.380;2023-01-16T03:23:50;94098.63;;;0.61;100.00
8280;BME280;8335;42.646;23.380;2023-01-16T03:26:25;94100.31;;;0.61;100.00
8280;BME280;8335;42.646;23.380;2023-01-16T03:29:02;94094.53;;;0.59;100.00
8280;BME280;8335;42.646;23.380;2023-01-16T03:31:37;94085.38;;;0.58;100.00
8280;BME280;8335;42.646;23.380;2023-01-16T03:34:12;94085.41;;;0.54;100.00
8280;BME280;8335;42.646;23.380;2023-01-16T03:36:49;94084.66;;;0.51;100.00
8280;BME280;8335;42.646;23.380;2023-01-16T03:39:22;94082.97;;;0.51;100.00
8280;BME280;8335;42.646;23.380;2023-01-16T03:41:53;94073.81;;;0.50;100.00
8280;BME280;8335;42.646;23.380;2023-01-16T03:44:24;94068.00;;;0.48;100.00
8280;BME280;8335;42.646;23.380;2023-01-16T03:46:55;94060.53;;;0.47;100.00
8280;BME280;8335;42.646;23.380;2023-01-16T03:49:26;94053.13;;;0.41;100.00
8280;BME280;8335;42.646;23.380;2023-01-16T03:51:57;94048.19;;;0.38;100.00
8280;BME280;8335;42.646;23.380;2023-01-16T03:54:36;94059.88;;;0.37;100.00
8280;BME280;8335;42.646;23.380;2023-01-16T03:57:10;94057.44;;;0.34;100.00
8280;BME280;8335;42.646;23.380;2023-01-16T03:59:40;94047.44;;;0.33;100.00
8280;BME280;8335;42.646;23.380;2023-01-16T04:02:11;94019.44;;;0.15;100.00
8280;BME280;8335;42.646;23.380;2023-01-16T04:04:44;94037.50;;;0.28;100.00
8280;BME280;8335;42.646;23.380;2023-01-16T04:07:20;94049.19;;;0.29;100.00
8280;BME280;8335;42.646;23.380;2023-01-16T04:09:54;94046.72;;;0.27;100.00
8280;BME280;8335;42.646;23.380;2023-01-16T04:12:24;94047.53;;;0.28;100.00
8280;BME280;8335;42.646;23.380;2023-01-16T04:14:55;94044.16;;;0.31;100.00
8280;BME280;8335;42.646;23.380;2023-01-16T04:17:23;94003.75;;;0.06;100.00
8280;BME280;8335;42.646;23.380;2023-01-16T04:19:51;94050.84;;;0.28;100.00
8280;BME280;8335;42.646;23.380;2023-01-16T04:22:20;94047.59;;;0.25;100.00
8280;BME280;8335;42.646;23.380;2023-01-16T04:24:47;94040.91;;;0.25;100.00
8280;BME280;8335;42.646;23.380;2023-01-16T04:27:15;94041.81;;;0.23;100.00
8280;BME280;8335;42.646;23.380;2023-01-16T04:29:41;94049.31;;;0.21;100.00
8280;BME280;8335;42.646;23.380;2023-01-16T04:32:08;94036.84;;;0.20;100.00
8280;BME280;8335;42.646;23.380;2023-01-16T04:34:35;94042.66;;;0.22;100.00
8280;BME280;8335;42.646;23.380;2023-01-16T04:37:03;94040.25;;;0.17;100.00
8280;BME280;8335;42.646;23.380;2023-01-16T04:39:30;94032.84;;;0.11;100.00
8280;BME280;8335;42.646;23.380;2023-01-16T04:41:57;94030.34;;;0.11;100.00
8280;BME280;8335;42.646;23.380;2023-01-16T04:44:24;94007.22;;;0.00;100.00
8280;BME280;8335;42.646;23.380;2023-01-16T04:46:51;94027.88;;;0.10;100.00
8280;BME280;8335;42.646;23.380;2023-01-16T04:49:19;94028.72;;;0.09;100.00
8280;BME280;8335;42.646;23.380;2023-01-16T04:51:46;94023.84;;;0.03;100.00
8280;BME280;8335;42.646;23.380;2023-01-16T04:54:15;94030.56;;;0.01;100.00
8280;BME280;8335;42.646;23.380;2023-01-16T04:56:42;94023.06;;;0.01;100.00
8280;BME280;8335;42.646;23.380;2023-01-16T04:59:10;94028.97;;;-0.05;100.00
8280;BME280;8335;42.646;23.380;2023-01-16T05:01:39;94019.91;;;-0.11;100.00
8280;BME280;8335;42.646;23.380;2023-01-16T05:04:08;94009.03;;;-0.10;100.00
8280;BME280;8335;42.646;23.380;2023-01-16T05:06:35;93976.16;;;-0.35;100.00
8280;BME280;8335;42.646;23.380;2023-01-16T05:09:03;94017.38;;;-0.09;100.00
8280;BME280;8335;42.646;23.380;2023-01-16T05:11:32;94018.19;;;-0.09;100.00
8280;BME280;8335;42.646;23.380;2023-01-16T05:13:59;94018.22;;;-0.10;100.00
8280;BME280;8335;42.646;23.380;2023-01-16T05:16:26;94013.41;;;-0.19;100.00
8280;BME280;8335;42.646;23.380;2023-01-16T05:18:53;94011.66;;;-0.14;100.00
8280;BME280;8335;42.646;23.380;2023-01-16T05:21:20;94009.25;;;-0.20;100.00
8280;BME280;8335;42.646;23.380;2023-01-16T05:23:46;93997.59;;;-0.21;100.00
8280;BME280;8335;42.646;23.380;2023-01-16T05:26:13;94000.91;;;-0.19;100.00
8280;BME280;8335;42.646;23.380;2023-01-16T05:28:41;93995.94;;;-0.22;100.00
8280;BME280;8335;42.646;23.380;2023-01-16T05:31:08;93986.84;;;-0.26;100.00
8280;BME280;8335;42.646;23.380;2023-01-16T05:33:35;93991.75;;;-0.22;100.00
8280;BME280;8335;42.646;23.380;2023-01-16T05:36:02;93995.09;;;-0.23;100.00
8280;BME280;8335;42.646;23.380;2023-01-16T05:38:28;93999.25;;;-0.22;100.00
8280;BME280;8335;42.646;23.380;2023-01-16T05:40:55;93991.75;;;-0.22;100.00
8280;BME280;8335;42.646;23.380;2023-01-16T05:43:22;93980.09;;;-0.21;100.00
8280;BME280;8335;42.646;23.380;2023-01-16T05:45:50;93983.31;;;-0.16;100.00
8280;BME280;8335;42.646;23.380;2023-01-16T05:48:17;93969.94;;;-0.15;100.00
8280;BME280;8335;42.646;23.380;2023-01-16T05:50:43;93979.94;;;-0.14;100.00
8280;BME280;8335;42.646;23.380;2023-01-16T05:53:10;93985.66;;;-0.09;100.00
8280;BME280;8335;42.646;23.380;2023-01-16T05:55:41;93988.13;;;-0.06;100.00
8280;BME280;8335;42.646;23.380;2023-01-16T05:58:09;93975.72;;;-0.12;100.00
8280;BME280;8335;42.646;23.380;2023-01-16T06:00:36;93983.94;;;-0.05;100.00
8280;BME280;8335;42.646;23.380;2023-01-16T06:03:05;93960.75;;;-0.15;100.00
8280;BME280;8335;42.646;23.380;2023-01-16T06:05:32;93984.72;;;-0.03;100.00
8280;BME280;8335;42.646;23.380;2023-01-16T06:07:59;93973.81;;;-0.01;100.00
8280;BME280;8335;42.646;23.380;2023-01-16T06:10:26;93976.22;;;0.06;100.00
8280;BME280;8335;42.646;23.380;2023-01-16T06:12:53;93976.94;;;0.11;100.00
8280;BME280;8335;42.646;23.380;2023-01-16T06:15:20;93972.69;;;0.16;100.00
8280;BME280;8335;42.646;23.380;2023-01-16T06:17:46;93960.16;;;0.16;100.00
8280;BME280;8335;42.646;23.380;2023-01-16T06:20:17;93963.34;;;0.24;100.00
8280;BME280;8335;42.646;23.380;2023-01-16T06:22:44;93964.03;;;0.31;100.00
8280;BME280;8335;42.646;23.380;2023-01-16T06:25:11;93967.94;;;0.42;100.00
8280;BME280;8335;42.646;23.380;2023-01-16T06:27:38;93955.47;;;0.41;100.00
8280;BME280;8335;42.646;23.380;2023-01-16T06:30:06;93972.78;;;0.50;100.00
8280;BME280;8335;42.646;23.380;2023-01-16T06:32:33;93976.75;;;0.60;100.00
8280;BME280;8335;42.646;23.380;2023-01-16T06:34:59;93978.31;;;0.64;100.00
8280;BME280;8335;42.646;23.380;2023-01-16T06:37:28;93975.63;;;0.73;100.00
8280;BME280;8335;42.646;23.380;2023-01-16T06:39:54;93958.09;;;0.73;100.00
8280;BME280;8335;42.646;23.380;2023-01-16T06:42:23;93990.09;;;0.98;100.00
8280;BME280;8335;42.646;23.380;2023-01-16T06:44:50;93999.00;;;1.11;100.00
8280;BME280;8335;42.646;23.380;2023-01-16T06:47:16;94001.22;;;1.23;100.00
8280;BME280;8335;42.646;23.380;2023-01-16T06:49:43;93998.38;;;1.35;100.00
8280;BME280;8335;42.646;23.380;2023-01-16T06:52:10;93990.50;;;1.51;100.00
8280;BME280;8335;42.646;23.380;2023-01-16T06:54:38;93975.16;;;1.61;100.00
8280;BME280;8335;42.646;23.380;2023-01-16T06:57:05;93964.72;;;1.77;100.00
8280;BME280;8335;42.646;23.380;2023-01-16T06:59:31;93942.97;;;1.77;100.00
8280;BME280;8335;42.646;23.380;2023-01-16T07:01:58;93953.66;;;1.84;100.00
8280;BME280;8335;42.646;23.380;2023-01-16T07:04:25;93973.47;;;1.95;100.00
8280;BME280;8335;42.646;23.380;2023-01-16T07:06:51;93980.53;;;2.11;100.00
8280;BME280;8335;42.646;23.380;2023-01-16T07:09:18;93977.66;;;2.25;100.00
8280;BME280;8335;42.646;23.380;2023-01-16T07:11:49;93978.19;;;2.36;100.00
8280;BME280;8335;42.646;23.380;2023-01-16T07:14:15;93975.44;;;2.44;100.00
8280;BME280;8335;42.646;23.380;2023-01-16T07:16:59;93982.84;;;2.48;100.00
8280;BME280;8335;42.646;23.380;2023-01-16T07:19:43;93975.13;;;2.55;100.00
8280;BME280;8335;42.646;23.380;2023-01-16T07:22:27;93969.81;;;2.64;100.00
8280;BME280;8335;42.646;23.380;2023-01-16T07:25:08;93975.31;;;2.76;100.00
8280;BME280;8335;42.646;23.380;2023-01-16T07:27:38;93969.59;;;2.71;100.00
8280;BME280;8335;42.646;23.380;2023-01-16T07:30:06;93970.88;;;2.85;100.00
8280;BME280;8335;42.646;23.380;2023-01-16T07:32:33;93958.75;;;2.97;100.00
8280;BME280;8335;42.646;23.380;2023-01-16T07:35:00;93963.41;;;3.10;100.00
8280;BME280;8335;42.646;23.380;2023-01-16T07:37:27;93959.72;;;3.20;100.00
8280;BME280;8335;42.646;23.380;2023-01-16T07:39:54;93960.72;;;3.14;100.00
8280;BME280;8335;42.646;23.380;2023-01-16T07:42:20;93962.97;;;3.23;100.00
8280;BME280;8335;42.646;23.380;2023-01-16T07:44:48;93953.53;;;3.30;100.00
8280;BME280;8335;42.646;23.380;2023-01-16T07:47:15;93943.47;;;3.30;100.00
8280;BME280;8335;42.646;23.380;2023-01-16T07:49:42;93940.06;;;3.31;100.00
8280;BME280;8335;42.646;23.380;2023-01-16T07:52:08;93955.94;;;3.33;100.00
8280;BME280;8335;42.646;23.380;2023-01-16T07:54:35;93955.84;;;3.36;100.00
8280;BME280;8335;42.646;23.380;2023-01-16T07:57:04;93951.41;;;3.43;100.00
8280;BME280;8335;42.646;23.380;2023-01-16T07:59:31;93943.63;;;3.50;100.00
8280;BME280;8335;42.646;23.380;2023-01-16T08:01:59;93925.16;;;3.50;100.00
8280;BME280;8335;42.646;23.380;2023-01-16T08:04:27;93925.91;;;3.53;100.00
8280;BME280;8335;42.646;23.380;2023-01-16T08:06:54;93929.25;;;3.29;100.00
8280;BME280;8335;42.646;23.380;2023-01-16T08:09:21;93927.03;;;3.45;100.00
8280;BME280;8335;42.646;23.380;2023-01-16T08:11:47;93899.09;;;3.52;100.00
8280;BME280;8335;42.646;23.380;2023-01-16T08:14:14;93918.91;;;3.86;100.00
8280;BME280;8335;42.646;23.380;2023-01-16T08:16:41;93902.78;;;3.67;100.00
8280;BME280;8335;42.646;23.380;2023-01-16T08:19:09;93916.19;;;3.68;100.00
8280;BME280;8335;42.646;23.380;2023-01-16T08:21:36;93921.84;;;3.74;100.00
8280;BME280;8335;42.646;23.380;2023-01-16T08:24:03;93927.00;;;3.95;100.00
8280;BME280;8335;42.646;23.380;2023-01-16T08:26:30;93933.47;;;4.02;100.00
8280;BME280;8335;42.646;23.380;2023-01-16T08:28:57;93952.41;;;4.12;100.00
8280;BME280;8335;42.646;23.380;2023-01-16T08:31:25;93935.75;;;4.31;100.00
8280;BME280;8335;42.646;23.380;2023-01-16T08:33:52;93936.34;;;4.38;100.00
8280;BME280;8335;42.646;23.380;2023-01-16T08:36:20;93928.38;;;4.49;100.00
8280;BME280;8335;42.646;23.380;2023-01-16T08:38:46;93923.91;;;4.79;100.00
8280;BME280;8335;42.646;23.380;2023-01-16T08:41:14;93912.72;;;5.27;100.00
8280;BME280;8335;42.646;23.380;2023-01-16T08:43:58;93906.53;;;5.74;100.00
8280;BME280;8335;42.646;23.380;2023-01-16T08:46:43;93908.69;;;6.23;98.38
8280;BME280;8335;42.646;23.380;2023-01-16T08:49:28;93897.44;;;6.66;95.92
8280;BME280;8335;42.646;23.380;2023-01-16T08:52:13;93903.19;;;7.23;92.79
8280;BME280;8335;42.646;23.380;2023-01-16T08:54:40;93910.03;;;7.56;90.35
8280;BME280;8335;42.646;23.380;2023-01-16T08:57:08;93902.94;;;7.80;89.12
8280;BME280;8335;42.646;23.380;2023-01-16T08:59:36;93893.44;;;7.83;86.76
8280;BME280;8335;42.646;23.380;2023-01-16T09:02:04;93914.41;;;7.87;85.85
8280;BME280;8335;42.646;23.380;2023-01-16T09:04:34;93882.88;;;7.75;85.20
8280;BME280;8335;42.646;23.380;2023-01-16T09:07:01;93898.69;;;7.80;85.51
8280;BME280;8335;42.646;23.380;2023-01-16T09:09:29;93891.91;;;7.63;85.91
8280;BME280;8335;42.646;23.380;2023-01-16T09:11:57;93894.00;;;7.55;86.58
8280;BME280;8335;42.646;23.380;2023-01-16T09:14:41;93881.81;;;7.46;86.56
8280;BME280;8335;42.646;23.380;2023-01-16T09:17:08;93885.84;;;7.33;87.40
8280;BME280;8335;42.646;23.380;2023-01-16T09:19:35;93878.44;;;7.28;88.01
8280;BME280;8335;42.646;23.380;2023-01-16T09:22:02;93877.97;;;7.22;88.20
8280;BME280;8335;42.646;23.380;2023-01-16T09:24:32;93871.59;;;7.13;87.81
8280;BME280;8335;42.646;23.380;2023-01-16T09:27:00;93871.59;;;6.96;88.77
8280;BME280;8335;42.646;23.380;2023-01-16T09:29:27;93871.00;;;6.90;87.80
8280;BME280;8335;42.646;23.380;2023-01-16T09:31:53;93857.97;;;6.81;89.61
8280;BME280;8335;42.646;23.380;2023-01-16T09:34:20;93856.56;;;6.56;90.24
8280;BME280;8335;42.646;23.380;2023-01-16T09:36:47;93838.81;;;6.58;90.13
8280;BME280;8335;42.646;23.380;2023-01-16T09:39:14;93837.03;;;6.60;90.78
8280;BME280;8335;42.646;23.380;2023-01-16T09:41:49;93842.81;;;6.45;91.24
8280;BME280;8335;42.646;23.380;2023-01-16T09:44:36;93850.50;;;6.42;90.23
8280;BME280;8335;42.646;23.380;2023-01-16T09:47:04;93844.16;;;6.52;91.07
8280;BME280;8335;42.646;23.380;2023-01-16T09:49:43;93835.56;;;6.73;91.36
8280;BME280;8335;42.646;23.380;2023-01-16T09:52:14;93832.13;;;6.74;90.77
8280;BME280;8335;42.646;23.380;2023-01-16T09:55:04;93821.97;;;6.93;89.37
8280;BME280;8335;42.646;23.380;2023-01-16T09:57:52;93818.81;;;7.05;89.47
8280;BME280;8335;42.646;23.380;2023-01-16T10:00:38;93822.47;;;7.17;89.42
8280;BME280;8335;42.646;23.380;2023-01-16T10:03:05;93818.00;;;7.22;88.14
8280;BME280;8335;42.646;23.380;2023-01-16T10:05:37;93794.50;;;7.03;89.28
8280;BME280;8335;42.646;23.380;2023-01-16T10:08:09;93806.94;;;7.07;89.88
8280;BME280;8335;42.646;23.380;2023-01-16T10:10:46;93804.91;;;6.97;89.54
8280;BME280;8335;42.646;23.380;2023-01-16T10:16:33;93789.50;;;6.84;89.76
8280;BME280;8335;42.646;23.380;2023-01-16T10:19:08;93793.75;;;6.83;90.88
8280;BME280;8335;42.646;23.380;2023-01-16T10:21:51;93772.91;;;6.78;90.67
8280;BME280;8335;42.646;23.380;2023-01-16T10:24:32;93776.56;;;6.90;90.56
8280;BME280;8335;42.646;23.380;2023-01-16T10:27:07;93771.78;;;7.01;89.16
8280;BME280;8335;42.646;23.380;2023-01-16T10:29:44;93765.88;;;7.18;89.25
8280;BME280;8335;42.646;23.380;2023-01-16T10:32:20;93765.50;;;7.26;88.68
8280;BME280;8335;42.646;23.380;2023-01-16T10:34:54;93754.31;;;7.30;87.51
8280;BME280;8335;42.646;23.380;2023-01-16T10:37:26;93736.03;;;7.40;87.36
8280;BME280;8335;42.646;23.380;2023-01-16T10:39:53;93738.09;;;7.50;87.14
8280;BME280;8335;42.646;23.380;2023-01-16T10:42:24;93736.97;;;7.55;86.66
8280;BME280;8335;42.646;23.380;2023-01-16T10:45:13;93732.47;;;7.60;85.57
8280;BME280;8335;42.646;23.380;2023-01-16T10:47:58;93715.22;;;7.51;85.21
8280;BME280;8335;42.646;23.380;2023-01-16T10:50:42;93727.13;;;7.49;86.06
8280;BME280;8335;42.646;23.380;2023-01-16T10:53:10;93712.09;;;7.30;86.80
8280;BME280;8335;42.646;23.380;2023-01-16T10:55:39;93692.56;;;7.32;86.88
8280;BME280;8335;42.646;23.380;2023-01-16T10:58:18;93713.31;;;7.06;87.71
8280;BME280;8335;42.646;23.380;2023-01-16T11:00:49;93689.00;;;7.03;87.14
8280;BME280;8335;42.646;23.380;2023-01-16T11:03:19;93693.56;;;6.97;87.77
8280;BME280;8335;42.646;23.380;2023-01-16T11:05:50;93686.75;;;6.81;88.53
8280;BME280;8335;42.646;23.380;2023-01-16T11:08:18;93666.38;;;6.67;88.99
8280;BME280;8335;42.646;23.380;2023-01-16T11:10:47;93671.88;;;6.41;90.49
8280;BME280;8335;42.646;23.380;2023-01-16T11:13:18;93602.00;;;5.88;90.28
8280;BME280;8335;42.646;23.380;2023-01-16T11:16:16;93656.03;;;6.20;91.21
8280;BME280;8335;42.646;23.380;2023-01-16T11:19:15;93665.66;;;6.30;91.79
8280;BME280;8335;42.646;23.380;2023-01-16T11:21:43;93661.56;;;6.45;91.40
8280;BME280;8335;42.646;23.380;2023-01-16T11:24:14;93631.22;;;6.45;91.25
8280;BME280;8335;42.646;23.380;2023-01-16T11:26:45;93652.09;;;6.14;91.92
8280;BME280;8335;42.646;23.380;2023-01-16T11:29:15;93665.91;;;6.07;93.15
8280;BME280;8335;42.646;23.380;2023-01-16T11:31:48;93647.88;;;6.32;92.57
8280;BME280;8335;42.646;23.380;2023-01-16T11:34:18;93656.50;;;6.45;92.76
8280;BME280;8335;42.646;23.380;2023-01-16T11:36:46;93653.03;;;6.63;92.11
8280;BME280;8335;42.646;23.380;2023-01-16T11:39:18;93641.13;;;6.83;90.27
8280;BME280;8335;42.646;23.380;2023-01-16T11:41:48;93633.44;;;6.84;90.65
8280;BME280;8335;42.646;23.380;2023-01-16T11:44:18;93633.00;;;6.94;90.65
8280;BME280;8335;42.646;23.380;2023-01-16T11:47:04;93639.53;;;7.13;90.09
8280;BME280;8335;42.646;23.380;2023-01-16T11:49:34;93633.78;;;7.43;89.29
8280;BME280;8335;42.646;23.380;2023-01-16T11:52:02;93618.31;;;7.63;88.94
8280;BME280;8335;42.646;23.380;2023-01-16T11:54:32;93629.00;;;7.68;86.30
8280;BME280;8335;42.646;23.380;2023-01-16T11:57:32;93619.88;;;7.66;86.59
8280;BME280;8335;42.646;23.380;2023-01-16T12:00:19;93597.88;;;7.66;85.77
8280;BME280;8335;42.646;23.380;2023-01-16T12:03:14;93616.66;;;6.99;88.95
8280;BME280;8335;42.646;23.380;2023-01-16T12:05:55;93595.84;;;7.10;89.36
8280;BME280;8335;42.646;23.380;2023-01-16T12:08:46;93587.34;;;6.95;89.62
8280;BME280;8335;42.646;23.380;2023-01-16T12:11:26;93609.66;;;7.20;88.66
8280;BME280;8335;42.646;23.380;2023-01-16T12:13:59;93592.09;;;7.49;86.96
8280;BME280;8335;42.646;23.380;2023-01-16T12:16:54;93598.31;;;7.59;86.63
8280;BME280;8335;42.646;23.380;2023-01-16T12:19:42;93590.22;;;7.52;84.37
8280;BME280;8335;42.646;23.380;2023-01-16T12:22:16;93544.66;;;7.21;84.85
8280;BME280;8335;42.646;23.380;2023-01-16T12:24:51;93566.88;;;7.31;84.86
8280;BME280;8335;42.646;23.380;2023-01-16T12:27:33;93569.63;;;7.42;85.54
8280;BME280;8335;42.646;23.380;2023-01-16T12:30:09;93560.63;;;7.53;85.94
8280;BME280;8335;42.646;23.380;2023-01-16T12:32:51;93561.88;;;7.45;84.99
8280;BME280;8335;42.646;23.380;2023-01-16T12:35:28;93538.78;;;7.04;86.79
8280;BME280;8335;42.646;23.380;2023-01-16T12:38:07;93544.88;;;6.84;87.83
8280;BME280;8335;42.646;23.380;2023-01-16T12:43:53;93546.06;;;6.79;89.50
8280;BME280;8335;42.646;23.380;2023-01-16T12:46:31;93540.50;;;6.72;89.45
8280;BME280;8335;42.646;23.380;2023-01-16T12:49:13;93536.84;;;6.45;89.33
8280;BME280;8335;42.646;23.380;2023-01-16T12:51:57;93535.28;;;6.42;90.10
8280;BME280;8335;42.646;23.380;2023-01-16T12:54:46;93514.53;;;6.35;90.55
8280;BME280;8335;42.646;23.380;2023-01-16T12:57:33;93529.56;;;6.39;91.65
8280;BME280;8335;42.646;23.380;2023-01-16T13:00:09;93519.56;;;6.20;91.84
8280;BME280;8335;42.646;23.380;2023-01-16T13:02:41;93512.91;;;6.01;92.05
8280;BME280;8335;42.646;23.380;2023-01-16T13:05:13;93519.22;;;5.93;92.81
8280;BME280;8335;42.646;23.380;2023-01-16T13:07:49;93494.69;;;5.77;94.27
8280;BME280;8335;42.646;23.380;2023-01-16T13:10:22;93503.19;;;5.59;94.86
8280;BME280;8335;42.646;23.380;2023-01-16T13:13:14;93504.72;;;5.62;94.94
8280;BME280;8335;42.646;23.380;2023-01-16T13:15:54;93477.78;;;5.62;96.03
8280;BME280;8335;42.646;23.380;2023-01-16T13:18:26;93484.44;;;5.63;95.92
8280;BME280;8335;42.646;23.380;2023-01-16T13:20:57;93474.81;;;5.54;97.26
8280;BME280;8335;42.646;23.380;2023-01-16T13:23:29;93472.59;;;5.65;96.34
8280;BME280;8335;42.646;23.380;2023-01-16T13:26:00;93479.84;;;5.71;97.21
8280;BME280;8335;42.646;23.380;2023-01-16T13:28:37;93461.81;;;5.62;97.34
8280;BME280;8335;42.646;23.380;2023-01-16T13:31:15;93446.38;;;5.50;97.29
8280;BME280;8335;42.646;23.380;2023-01-16T13:33:46;93461.44;;;5.52;97.99
8280;BME280;8335;42.646;23.380;2023-01-16T13:36:34;93467.59;;;5.64;97.80
8280;BME280;8335;42.646;23.380;2023-01-16T13:39:30;93446.78;;;5.76;96.61
8280;BME280;8335;42.646;23.380;2023-01-16T13:42:04;93418.44;;;5.53;96.26
8280;BME280;8335;42.646;23.380;2023-01-16T13:44:35;93459.59;;;5.73;96.54
8280;BME280;8335;42.646;23.380;2023-01-16T13:47:25;93454.22;;;5.79;96.54
8280;BME280;8335;42.646;23.380;2023-01-16T13:50:05;93461.81;;;5.79;96.35
8280;BME280;8335;42.646;23.380;2023-01-16T13:52:33;93456.59;;;5.82;96.86